createdAt,value
2022-12-27T00:00:36.966Z,0.90
2022-12-27T00:03:04.466Z,0.50
2022-12-27T00:05:31.680Z,0.40
2022-12-27T00:07:58.910Z,0.50
2022-12-27T00:10:27.672Z,0.57
2022-12-27T00:12:54.922Z,0.40
2022-12-27T00:15:21.988Z,0.50
2022-12-27T00:17:49.061Z,1.77
2022-12-27T00:20:16.986Z,0.50
2022-12-27T00:22:44.289Z,0.50
2022-12-27T00:25:11.651Z,0.77
2022-12-27T00:27:38.960Z,0.40
2022-12-27T00:30:06.747Z,0.40
2022-12-27T00:32:33.874Z,0.40
2022-12-27T00:35:00.915Z,0.67
2022-12-27T00:37:28.026Z,0.40
2022-12-27T00:39:55.107Z,0.50
2022-12-27T00:42:22.314Z,0.50
2022-12-27T00:44:49.413Z,0.83
2022-12-27T00:47:16.565Z,0.40
2022-12-27T00:49:43.796Z,0.40
2022-12-27T00:52:10.920Z,0.40
2022-12-27T00:54:38.091Z,0.30
2022-12-27T00:57:05.267Z,0.50
2022-12-27T00:59:32.517Z,0.37
2022-12-27T01:01:59.771Z,0.63
2022-12-27T01:04:27.028Z,0.40
2022-12-27T01:06:54.216Z,0.40
2022-12-27T01:09:21.568Z,0.87
2022-12-27T01:11:48.733Z,0.40
2022-12-27T01:14:15.936Z,0.43
2022-12-27T01:16:43.788Z,0.70
2022-12-27T01:19:11.019Z,2.43
2022-12-27T01:21:38.151Z,0.70
2022-12-27T01:24:07.003Z,0.90
2022-12-27T01:26:34.105Z,0.40
2022-12-27T01:29:01.158Z,0.93
2022-12-27T01:31:28.700Z,4.40
2022-12-27T01:33:58.417Z,0.40
2022-12-27T01:36:27.314Z,0.30
2022-12-27T01:38:55.012Z,0.70
2022-12-27T01:41:47.656Z,0.40
2022-12-27T01:44:53.790Z,0.40
2022-12-27T01:47:39.421Z,0.40
2022-12-27T01:50:15.990Z,0.60
2022-12-27T01:52:59.425Z,0.40
2022-12-27T01:55:35.278Z,0.40
2022-12-27T01:58:09.243Z,1.27
2022-12-27T02:00:36.485Z,0.40
2022-12-27T02:03:06.394Z,0.40
2022-12-27T02:05:35.013Z,1.23
2022-12-27T02:08:09.607Z,0.53
2022-12-27T02:10:38.859Z,0.40
2022-12-27T02:13:06.669Z,0.30
2022-12-27T02:15:34.461Z,0.40
2022-12-27T02:18:01.754Z,0.50
2022-12-27T02:20:38.322Z,0.30
2022-12-27T02:23:40.029Z,0.40
2022-12-27T02:26:24.991Z,0.50
2022-12-27T02:29:20.021Z,0.60
2022-12-27T02:32:14.851Z,0.50
2022-12-27T02:34:50.941Z,0.73
2022-12-27T02:37:20.732Z,0.40
2022-12-27T02:39:49.957Z,0.40
2022-12-27T02:42:36.895Z,0.83
2022-12-27T02:45:30.837Z,0.43
2022-12-27T02:48:16.886Z,0.30
2022-12-27T02:51:59.839Z,1.00
2022-12-27T02:55:05.427Z,0.30
2022-12-27T02:57:47.857Z,0.50
2022-12-27T03:00:39.840Z,0.37
2022-12-27T03:03:23.838Z,0.30
2022-12-27T03:06:40.505Z,0.60
2022-12-27T03:09:39.338Z,0.40
2022-12-27T03:12:35.721Z,0.53
2022-12-27T03:15:41.412Z,0.40
2022-12-27T03:18:15.076Z,0.87
2022-12-27T03:21:03.921Z,0.57
2022-12-27T03:23:50.407Z,0.50
2022-12-27T03:26:18.978Z,0.80
2022-12-27T03:29:07.198Z,0.50
2022-12-27T03:31:58.691Z,1.10
2022-12-27T03:34:40.132Z,0.40
2022-12-27T03:37:37.028Z,0.30
2022-12-27T03:40:27.492Z,0.40
2022-12-27T03:43:14.894Z,0.57
2022-12-27T03:46:11.537Z,0.43
2022-12-27T03:49:01.753Z,0.30
2022-12-27T03:51:35.915Z,0.40
2022-12-27T03:54:10.793Z,0.30
2022-12-27T03:56:39.285Z,0.50
2022-12-27T03:59:07.663Z,0.30
2022-12-27T04:01:34.876Z,0.40
2022-12-27T04:04:02.049Z,0.40
2022-12-27T04:06:29.203Z,0.30
2022-12-27T04:09:14.770Z,0.30
2022-12-27T04:12:00.301Z,0.50
2022-12-27T04:14:46.095Z,0.30
2022-12-27T04:17:31.758Z,0.40
2022-12-27T04:20:17.272Z,0.40
2022-12-27T04:23:02.991Z,0.30
2022-12-27T04:25:49.086Z,0.33
2022-12-27T04:28:34.517Z,0.40
2022-12-27T04:31:20.324Z,0.77
2022-12-27T04:34:05.928Z,1.10
2022-12-27T04:36:33.187Z,0.67
2022-12-27T04:39:00.294Z,0.37
2022-12-27T04:41:45.799Z,0.40
2022-12-27T04:44:31.119Z,0.30
2022-12-27T04:47:17.364Z,0.33
2022-12-27T04:50:04.718Z,0.30
2022-12-27T04:52:51.802Z,0.30
2022-12-27T04:55:23.053Z,1.00
2022-12-27T04:57:50.954Z,0.30
2022-12-27T05:00:37.927Z,0.40
2022-12-27T05:03:11.986Z,0.40
2022-12-27T05:05:40.713Z,0.40
2022-12-27T05:08:26.200Z,0.30
2022-12-27T05:11:12.167Z,0.47
2022-12-27T05:13:57.607Z,0.40
2022-12-27T05:16:24.728Z,0.30
2022-12-27T05:18:53.105Z,0.37
2022-12-27T05:21:20.511Z,0.30
2022-12-27T05:24:06.099Z,0.40
2022-12-27T05:26:34.274Z,0.30
2022-12-27T05:29:02.038Z,0.30
2022-12-27T05:31:29.991Z,0.67
2022-12-27T05:33:57.877Z,0.40
2022-12-27T05:36:25.689Z,0.50
2022-12-27T05:38:52.944Z,0.50
2022-12-27T05:41:20.084Z,0.40
2022-12-27T05:43:47.906Z,0.43
2022-12-27T05:46:18.737Z,0.30
2022-12-27T05:48:46.257Z,0.80
2022-12-27T05:51:19.106Z,0.40
2022-12-27T05:53:47.356Z,0.60
2022-12-27T05:56:20.109Z,1.40
2022-12-27T05:58:47.731Z,0.40
2022-12-27T06:01:17.233Z,0.47
2022-12-27T06:03:44.797Z,1.00
2022-12-27T06:06:12.954Z,0.40
2022-12-27T06:08:40.380Z,0.40
2022-12-27T06:11:13.818Z,0.30
2022-12-27T06:13:42.096Z,0.50
2022-12-27T06:16:11.827Z,0.70
2022-12-27T06:18:41.037Z,0.33
2022-12-27T06:21:20.675Z,0.40
2022-12-27T06:23:48.709Z,0.40
2022-12-27T06:26:21.322Z,0.50
2022-12-27T06:28:49.817Z,0.77
2022-12-27T06:31:18.950Z,0.40
2022-12-27T06:33:46.877Z,0.30
2022-12-27T06:36:16.779Z,0.40
2022-12-27T06:38:44.286Z,0.60
2022-12-27T06:41:13.760Z,1.13
2022-12-27T06:43:41.651Z,0.40
2022-12-27T06:46:17.077Z,0.50
2022-12-27T06:48:48.545Z,0.33
2022-12-27T06:51:17.823Z,0.57
2022-12-27T06:53:49.884Z,0.57
2022-12-27T06:56:19.518Z,0.40
2022-12-27T06:58:48.545Z,0.67
2022-12-27T07:01:18.785Z,0.40
2022-12-27T07:03:51.080Z,0.37
2022-12-27T07:06:18.844Z,0.90
2022-12-27T07:08:46.343Z,1.23
2022-12-27T07:11:14.557Z,0.53
2022-12-27T07:13:47.498Z,0.40
2022-12-27T07:16:17.305Z,1.03
2022-12-27T07:18:45.603Z,0.30
2022-12-27T07:21:15.606Z,0.40
2022-12-27T07:23:43.240Z,0.47
2022-12-27T07:26:13.512Z,0.87
2022-12-27T07:28:41.414Z,0.40
2022-12-27T07:31:10.693Z,0.40
2022-12-27T07:33:38.458Z,0.50
2022-12-27T07:36:08.917Z,0.87
2022-12-27T07:38:36.456Z,0.73
2022-12-27T07:41:04.157Z,0.90
2022-12-27T07:43:35.759Z,0.43
2022-12-27T07:46:10.317Z,0.50
2022-12-27T07:48:38.483Z,0.43
2022-12-27T07:51:06.278Z,1.60
2022-12-27T07:53:34.144Z,0.57
2022-12-27T07:56:10.371Z,0.50
2022-12-27T07:58:41.552Z,0.40
2022-12-27T08:01:10.397Z,0.60
2022-12-27T08:03:38.398Z,0.50
2022-12-27T08:06:06.709Z,0.40
2022-12-27T08:08:40.224Z,0.57
2022-12-27T08:11:07.912Z,0.90
2022-12-27T08:13:35.814Z,2.20
2022-12-27T08:16:03.331Z,0.90
2022-12-27T08:18:30.809Z,0.80
2022-12-27T08:20:57.997Z,0.53
2022-12-27T08:23:25.738Z,0.73
2022-12-27T08:25:52.898Z,0.33
2022-12-27T08:28:20.078Z,1.13
2022-12-27T08:30:47.481Z,1.37
2022-12-27T08:33:17.755Z,1.33
2022-12-27T08:35:54.599Z,2.23
2022-12-27T08:38:22.273Z,5.27
2022-12-27T08:40:49.488Z,0.63
2022-12-27T08:43:16.710Z,0.77
2022-12-27T08:45:43.773Z,0.43
2022-12-27T08:48:10.987Z,0.47
2022-12-27T08:50:38.226Z,0.73
2022-12-27T08:53:06.497Z,0.60
2022-12-27T08:55:34.572Z,0.43
2022-12-27T08:58:13.811Z,0.60
2022-12-27T09:00:42.999Z,0.50
2022-12-27T09:03:10.867Z,0.80
2022-12-27T09:05:41.866Z,0.60
2022-12-27T09:08:10.087Z,0.43
2022-12-27T09:10:37.762Z,0.57
2022-12-27T09:13:05.155Z,0.80
2022-12-27T09:15:32.483Z,0.87
2022-12-27T09:17:59.817Z,1.50
2022-12-27T09:20:26.965Z,1.63
2022-12-27T09:22:54.458Z,0.40
2022-12-27T09:25:21.539Z,0.47
2022-12-27T09:27:48.667Z,0.80
2022-12-27T09:30:15.809Z,0.50
2022-12-27T09:32:42.979Z,0.90
2022-12-27T09:35:10.220Z,0.90
2022-12-27T09:37:38.804Z,1.87
2022-12-27T09:40:07.147Z,2.20
2022-12-27T09:43:19.504Z,3.13
2022-12-27T09:45:54.364Z,1.87
2022-12-27T09:48:36.890Z,1.70
2022-12-27T09:51:14.765Z,3.90
2022-12-27T09:53:54.509Z,2.43
2022-12-27T09:56:40.934Z,1.20
2022-12-27T09:59:31.281Z,1.97
2022-12-27T10:01:59.838Z,1.53
2022-12-27T10:04:52.951Z,1.20
2022-12-27T10:07:37.200Z,1.53
2022-12-27T10:10:09.102Z,4.10
2022-12-27T10:12:51.405Z,6.67
2022-12-27T10:19:15.449Z,2.13
2022-12-27T10:22:09.860Z,1.40
2022-12-27T10:24:52.511Z,1.20
2022-12-27T10:27:23.913Z,2.07
2022-12-27T10:29:59.384Z,1.87
2022-12-27T10:32:27.092Z,1.70
2022-12-27T10:34:56.579Z,1.43
2022-12-27T10:37:24.546Z,1.50
2022-12-27T10:39:51.799Z,1.60
2022-12-27T10:42:28.038Z,2.33
2022-12-27T10:45:46.613Z,1.70
2022-12-27T10:48:23.230Z,1.40
2022-12-27T10:50:53.639Z,1.70
2022-12-27T10:53:54.098Z,1.40
2022-12-27T10:56:34.253Z,2.47
2022-12-27T10:59:13.563Z,1.50
2022-12-27T11:01:41.664Z,1.57
2022-12-27T11:04:22.488Z,1.50
2022-12-27T11:10:14.745Z,1.57
2022-12-27T11:12:56.043Z,3.00
2022-12-27T11:15:23.733Z,7.10
2022-12-27T11:17:57.548Z,3.13
2022-12-27T11:20:49.747Z,1.63
2022-12-27T11:23:19.463Z,2.40
2022-12-27T11:25:52.685Z,1.87
2022-12-27T11:28:34.245Z,1.93
2022-12-27T11:31:04.451Z,1.80
2022-12-27T11:33:45.783Z,1.20
2022-12-27T11:36:16.010Z,3.07
2022-12-27T11:38:49.591Z,4.93
2022-12-27T11:41:23.222Z,2.20
2022-12-27T11:44:01.718Z,2.83
2022-12-27T11:46:35.412Z,3.23
2022-12-27T11:49:06.625Z,2.27
2022-12-27T11:51:55.697Z,3.57
2022-12-27T11:54:37.991Z,4.10
2022-12-27T11:57:21.032Z,3.13
2022-12-27T12:00:20.428Z,2.67
2022-12-27T12:02:57.193Z,1.27
2022-12-27T12:05:37.672Z,2.10
2022-12-27T12:08:38.200Z,1.90
2022-12-27T12:11:18.665Z,3.83
2022-12-27T12:13:49.196Z,2.47
2022-12-27T12:16:39.539Z,2.83
2022-12-27T12:19:18.960Z,2.70
2022-12-27T12:22:23.781Z,2.63
2022-12-27T12:25:01.148Z,2.17
2022-12-27T12:28:23.343Z,2.30
2022-12-27T12:31:02.507Z,2.17
2022-12-27T12:34:02.515Z,1.97
2022-12-27T12:36:52.695Z,2.50
2022-12-27T12:39:58.663Z,1.40
2022-12-27T12:42:34.628Z,1.03
2022-12-27T12:45:40.145Z,1.50
2022-12-27T12:48:25.992Z,1.13
2022-12-27T12:51:30.891Z,1.77
2022-12-27T12:54:28.326Z,1.77
2022-12-27T12:57:14.046Z,3.00
2022-12-27T12:59:44.646Z,3.27
2022-12-27T13:02:30.091Z,4.07
2022-12-27T13:05:04.450Z,5.67
2022-12-27T13:07:54.847Z,5.57
2022-12-27T13:10:46.220Z,2.83
2022-12-27T13:13:18.186Z,6.57
2022-12-27T13:16:10.663Z,3.07
2022-12-27T13:18:56.215Z,4.63
2022-12-27T13:21:35.853Z,1.20
2022-12-27T13:24:29.377Z,2.37
2022-12-27T13:27:16.197Z,1.80
2022-12-27T13:29:46.283Z,2.70
2022-12-27T13:32:36.867Z,1.53
2022-12-27T13:35:06.972Z,1.10
2022-12-27T13:37:53.119Z,2.07
2022-12-27T13:40:49.501Z,1.53
2022-12-27T13:43:43.071Z,2.17
2022-12-27T13:46:25.347Z,2.67
2022-12-27T13:49:06.156Z,3.77
2022-12-27T13:51:51.024Z,1.17
2022-12-27T13:54:49.408Z,1.40
2022-12-27T13:57:58.366Z,1.80
2022-12-27T14:00:32.145Z,2.40
2022-12-27T14:03:43.840Z,1.37
2022-12-27T14:06:46.834Z,3.10
2022-12-27T14:09:32.237Z,3.33
2022-12-27T14:12:32.863Z,2.20
2022-12-27T14:15:04.150Z,1.30
2022-12-27T14:17:37.842Z,2.77
2022-12-27T14:20:37.310Z,1.50
2022-12-27T14:23:26.279Z,1.40
2022-12-27T14:26:02.461Z,2.40
2022-12-27T14:29:00.073Z,6.67
2022-12-27T14:31:41.421Z,3.27
2022-12-27T14:34:51.310Z,1.47
2022-12-27T14:37:52.523Z,4.83
2022-12-27T14:40:45.039Z,3.13
2022-12-27T14:43:30.394Z,1.40
2022-12-27T14:46:32.874Z,1.60
2022-12-27T14:49:35.765Z,3.03
2022-12-27T14:52:27.844Z,1.43
2022-12-27T14:55:13.840Z,2.40
2022-12-27T14:57:56.044Z,1.80
2022-12-27T15:00:29.504Z,2.17
2022-12-27T15:03:35.750Z,1.57
2022-12-27T15:06:24.874Z,1.30
2022-12-27T15:09:19.983Z,2.17
2022-12-27T15:12:37.870Z,3.33
2022-12-27T15:15:15.365Z,1.33
2022-12-27T15:17:50.046Z,0.80
2022-12-27T15:20:34.799Z,1.73
2022-12-27T15:23:30.244Z,1.40
2022-12-27T15:26:24.352Z,5.40
2022-12-27T15:29:34.918Z,3.43
2022-12-27T15:32:20.707Z,3.17
2022-12-27T15:35:15.314Z,3.40
2022-12-27T15:37:48.615Z,2.43
2022-12-27T15:40:23.785Z,1.77
2022-12-27T15:43:19.704Z,2.40
2022-12-27T15:46:24.462Z,3.20
2022-12-27T15:49:13.621Z,5.73
2022-12-27T15:52:08.150Z,3.90
2022-12-27T15:54:53.268Z,2.67
2022-12-27T15:57:59.621Z,2.70
2022-12-27T16:00:33.651Z,2.17
2022-12-27T16:03:43.954Z,3.23
2022-12-27T16:06:34.017Z,4.43
2022-12-27T16:09:25.416Z,3.93
2022-12-27T16:12:10.694Z,4.00
2022-12-27T16:14:41.137Z,2.73
2022-12-27T16:17:26.636Z,3.00
2022-12-27T16:20:08.823Z,5.80
2022-12-27T16:22:43.596Z,3.30
2022-12-27T16:25:35.685Z,3.37
2022-12-27T16:28:19.777Z,1.37
2022-12-27T16:30:52.694Z,4.20
2022-12-27T16:33:31.586Z,2.57
2022-12-27T16:36:07.666Z,2.00
2022-12-27T16:38:37.389Z,4.83
2022-12-27T16:41:38.460Z,2.23
2022-12-27T16:44:24.068Z,3.33
2022-12-27T16:47:06.978Z,2.60
2022-12-27T16:49:46.450Z,2.63
2022-12-27T16:52:13.748Z,2.87
2022-12-27T16:54:58.212Z,2.10
2022-12-27T16:57:25.492Z,2.57
2022-12-27T16:59:59.958Z,2.60
2022-12-27T17:02:43.380Z,2.43
2022-12-27T17:05:16.847Z,3.57
2022-12-27T17:08:19.046Z,1.70
2022-12-27T17:10:52.285Z,4.97
2022-12-27T17:13:49.837Z,2.43
2022-12-27T17:16:27.115Z,4.77
2022-12-27T17:19:01.849Z,2.13
2022-12-27T17:21:40.574Z,2.03
2022-12-27T17:24:22.966Z,3.17
2022-12-27T17:27:08.340Z,3.87
2022-12-27T17:30:00.265Z,6.27
2022-12-27T17:33:06.854Z,15.43
2022-12-27T17:35:52.817Z,5.13
2022-12-27T17:38:27.968Z,7.47
2022-12-27T17:42:11.297Z,13.05
2022-12-27T17:44:50.939Z,12.18
2022-12-27T17:47:25.883Z,10.03
2022-12-27T17:49:53.896Z,6.53
2022-12-27T17:52:44.639Z,8.95
2022-12-27T17:55:33.252Z,7.75
2022-12-27T17:58:04.081Z,4.00
2022-12-27T18:00:35.787Z,4.72
2022-12-27T18:03:08.167Z,3.97
2022-12-27T18:05:41.100Z,3.07
2022-12-27T18:08:17.216Z,6.07
2022-12-27T18:10:44.593Z,7.07
2022-12-27T18:13:18.622Z,8.35
2022-12-27T18:15:48.293Z,5.37
2022-12-27T18:18:25.822Z,6.00
2022-12-27T18:20:59.770Z,9.30
2022-12-27T18:23:27.358Z,5.40
2022-12-27T18:26:07.889Z,15.27
2022-12-27T18:28:38.867Z,9.87
2022-12-27T18:31:24.765Z,7.57
2022-12-27T18:34:12.273Z,4.53
2022-12-27T18:36:47.065Z,6.30
2022-12-27T18:39:36.790Z,8.97
2022-12-27T18:42:37.739Z,7.30
2022-12-27T18:45:07.031Z,6.87
2022-12-27T18:47:44.996Z,9.63
2022-12-27T18:50:33.812Z,5.70
2022-12-27T18:53:31.777Z,6.40
2022-12-27T18:56:27.342Z,5.10
2022-12-27T18:59:26.434Z,8.53
2022-12-27T19:01:54.702Z,7.93
2022-12-27T19:04:26.125Z,7.83
2022-12-27T19:06:56.287Z,10.67
2022-12-27T19:09:30.649Z,10.53
2022-12-27T19:12:03.974Z,8.43
2022-12-27T19:14:46.150Z,7.43
2022-12-27T19:17:26.797Z,7.60
2022-12-27T19:19:57.213Z,5.77
2022-12-27T19:22:47.977Z,7.80
2022-12-27T19:25:28.854Z,8.50
2022-12-27T19:28:10.261Z,7.93
2022-12-27T19:30:47.486Z,6.30
2022-12-27T19:33:25.654Z,6.10
2022-12-27T19:35:54.119Z,5.93
2022-12-27T19:38:25.011Z,6.47
2022-12-27T19:41:01.347Z,10.93
2022-12-27T19:43:44.922Z,9.93
2022-12-27T19:46:13.550Z,7.83
2022-12-27T19:48:41.167Z,8.57
2022-12-27T19:51:12.013Z,6.93
2022-12-27T19:53:41.508Z,5.00
2022-12-27T19:56:09.400Z,4.27
2022-12-27T19:58:36.973Z,5.40
2022-12-27T20:01:04.367Z,4.87
2022-12-27T20:03:31.497Z,4.55
2022-12-27T20:06:13.654Z,7.90
2022-12-27T20:08:49.487Z,5.65
2022-12-27T20:11:21.878Z,6.03
2022-12-27T20:13:49.736Z,5.53
2022-12-27T20:16:19.196Z,5.40
2022-12-27T20:18:47.428Z,5.70
2022-12-27T20:21:19.738Z,3.73
2022-12-27T20:23:47.382Z,4.57
2022-12-27T20:26:20.239Z,3.97
2022-12-27T20:28:47.903Z,4.27
2022-12-27T20:31:17.894Z,9.47
2022-12-27T20:33:45.412Z,8.47
2022-12-27T20:36:12.601Z,14.13
2022-12-27T20:38:40.132Z,9.13
2022-12-27T20:41:12.939Z,6.83
2022-12-27T20:43:40.301Z,5.90
2022-12-27T20:46:09.719Z,5.20
2022-12-27T20:48:38.659Z,5.97
2022-12-27T20:51:11.611Z,3.93
2022-12-27T20:53:38.972Z,7.03
2022-12-27T20:56:06.841Z,19.47
2022-12-27T20:58:34.641Z,6.07
2022-12-27T21:01:10.267Z,6.47
2022-12-27T21:03:38.408Z,4.50
2022-12-27T21:06:12.583Z,5.67
2022-12-27T21:08:46.631Z,3.60
2022-12-27T21:11:20.870Z,2.93
2022-12-27T21:13:49.073Z,4.10
2022-12-27T21:16:21.972Z,3.33
2022-12-27T21:18:49.685Z,3.97
2022-12-27T21:21:20.080Z,4.13
2022-12-27T21:23:48.406Z,3.13
2022-12-27T21:26:18.632Z,4.73
2022-12-27T21:28:46.292Z,4.70
2022-12-27T21:31:14.372Z,4.97
2022-12-27T21:33:41.710Z,4.63
2022-12-27T21:36:12.409Z,4.63
2022-12-27T21:38:39.910Z,5.80
2022-12-27T21:41:13.961Z,4.77
2022-12-27T21:43:41.442Z,4.67
2022-12-27T21:46:23.786Z,3.80
2022-12-27T21:48:56.874Z,5.13
2022-12-27T21:51:24.835Z,4.83
2022-12-27T21:53:52.842Z,3.20
2022-12-27T21:56:20.584Z,3.60
2022-12-27T21:58:48.135Z,3.60
2022-12-27T22:01:18.665Z,3.67
2022-12-27T22:03:47.872Z,4.23
2022-12-27T22:06:19.183Z,3.37
2022-12-27T22:08:49.268Z,5.87
2022-12-27T22:11:19.498Z,5.80
2022-12-27T22:13:46.977Z,8.70
2022-12-27T22:16:19.562Z,3.37
2022-12-27T22:18:48.043Z,3.70
2022-12-27T22:21:21.296Z,3.30
2022-12-27T22:23:50.980Z,3.00
2022-12-27T22:26:23.978Z,3.10
2022-12-27T22:28:51.539Z,4.10
2022-12-27T22:31:21.143Z,2.67
2022-12-27T22:33:49.352Z,3.33
2022-12-27T22:36:26.728Z,6.83
2022-12-27T22:38:59.085Z,3.23
2022-12-27T22:41:31.377Z,3.20
2022-12-27T22:44:04.835Z,3.87
2022-12-27T22:46:58.601Z,2.17
2022-12-27T22:49:19.119Z,2.23
2022-12-27T22:51:46.263Z,2.33
2022-12-27T22:54:13.512Z,2.93
2022-12-27T22:56:42.506Z,3.50
2022-12-27T22:59:14.784Z,2.80
2022-12-27T23:01:43.342Z,4.33
2022-12-27T23:04:13.345Z,2.97
2022-12-27T23:06:41.352Z,2.40
2022-12-27T23:09:09.033Z,3.30
2022-12-27T23:11:38.758Z,3.70
2022-12-27T23:14:15.348Z,13.33
2022-12-27T23:16:45.621Z,19.47
2022-12-27T23:19:15.066Z,12.97
2022-12-27T23:21:42.891Z,5.87
2022-12-27T23:24:11.005Z,5.50
2022-12-27T23:26:39.177Z,6.93
2022-12-27T23:29:06.901Z,4.90
2022-12-27T23:31:34.267Z,5.00
2022-12-27T23:34:01.619Z,5.60
2022-12-27T23:36:30.653Z,5.17
2022-12-27T23:38:58.003Z,4.20
2022-12-27T23:41:26.372Z,3.47
2022-12-27T23:43:55.881Z,5.27
2022-12-27T23:46:33.085Z,4.87
2022-12-27T23:49:03.173Z,3.23
2022-12-27T23:51:31.297Z,4.00
2022-12-27T23:53:58.743Z,4.33
2022-12-27T23:56:32.085Z,5.37
2022-12-27T23:59:00.841Z,4.60
